Time;durP1;ratioP1;P1;durP2;ratioP2;P2;SDS_P1;SDS_P2;PMS_P1;PMS_P2;Temp;Humidity;BMP_temperature;BMP_pressure;BME280_temperature;BME280_humidity;BME280_pressure;Samples;Min_cycle;Max_cycle;Signal;HPM_P1;HPM_P2
2021/04/16 00:00:20;;;;;;;6.63;5.90;;;;;;;;;;4884715;29;20223;-80
2021/04/16 00:02:48;;;;;;;7.67;6.40;;;;;;;;;;4882204;29;20207;-84
2021/04/16 00:05:17;;;;;;;6.90;5.87;;;;;;;;;;4883026;28;20212;-85
2021/04/16 00:07:45;;;;;;;8.13;6.10;;;;;;;;;;4904774;28;20205;-88
2021/04/16 00:10:16;;;;;;;7.00;6.23;;;;;;;;;;4919778;28;20239;-82
2021/04/16 00:12:44;;;;;;;8.10;6.17;;;;;;;;;;4883496;28;20220;-83
2021/04/16 00:15:14;;;;;;;7.70;6.13;;;;;;;;;;4886512;28;20227;-80
2021/04/16 00:17:41;;;;;;;7.83;7.07;;;;;;;;;;4886112;28;20238;-81
2021/04/16 00:20:12;;;;;;;7.77;6.43;;;;;;;;;;4895268;28;20236;-81
2021/04/16 00:22:40;;;;;;;7.40;6.63;;;;;;;;;;4898192;28;20740;-81
2021/04/16 00:25:11;;;;;;;9.87;6.67;;;;;;;;;;4950692;28;20714;-82
2021/04/16 00:27:38;;;;;;;7.47;6.43;;;;;;;;;;4962415;29;20404;-81
2021/04/16 00:30:07;;;;;;;6.50;5.80;;;;;;;;;;4965569;28;20229;-82
2021/04/16 00:32:35;;;;;;;7.53;6.23;;;;;;;;;;4981338;28;20205;-84
2021/04/16 00:35:05;;;;;;;8.33;6.50;;;;;;;;;;4925619;28;20242;-83
2021/04/16 00:37:33;;;;;;;7.10;6.33;;;;;;;;;;4914029;28;20254;-85
2021/04/16 00:40:01;;;;;;;8.93;6.43;;;;;;;;;;4880955;29;20246;-81
2021/04/16 00:42:29;;;;;;;7.53;6.77;;;;;;;;;;4883272;28;20689;-81
2021/04/16 00:44:57;;;;;;;7.27;6.57;;;;;;;;;;4868220;29;20222;-81
2021/04/16 00:47:25;;;;;;;9.80;6.93;;;;;;;;;;4879040;29;20222;-82
2021/04/16 00:49:57;;;;;;;7.60;6.80;;;;;;;;;;4968378;28;20227;-81
2021/04/16 00:52:28;;;;;;;8.73;6.70;;;;;;;;;;4910263;28;20245;-83
2021/04/16 00:54:57;;;;;;;9.03;6.90;;;;;;;;;;4934505;28;20246;-86
2021/04/16 00:57:25;;;;;;;8.57;7.23;;;;;;;;;;4905900;28;20219;-81
2021/04/16 00:59:57;;;;;;;7.77;6.90;;;;;;;;;;4985572;28;20236;-82
2021/04/16 01:02:25;;;;;;;8.90;7.00;;;;;;;;;;4961708;28;20219;-84
2021/04/16 01:04:54;;;;;;;8.23;7.10;;;;;;;;;;4906254;28;20226;-85
2021/04/16 01:07:22;;;;;;;9.47;7.10;;;;;;;;;;4994416;28;20223;-89
2021/04/16 01:09:51;;;;;;;7.73;6.67;;;;;;;;;;4995492;28;20206;-87
2021/04/16 01:12:18;;;;;;;8.93;7.37;;;;;;;;;;4946969;28;20223;-86
2021/04/16 01:14:50;;;;;;;8.77;6.77;;;;;;;;;;4975348;28;20230;-84
2021/04/16 01:17:18;;;;;;;8.93;7.13;;;;;;;;;;4905295;28;20224;-85
2021/04/16 01:19:50;;;;;;;8.50;7.30;;;;;;;;;;4959719;28;20239;-84
2021/04/16 01:22:22;;;;;;;7.90;6.50;;;;;;;;;;4917967;28;20245;-84
2021/04/16 01:24:51;;;;;;;8.73;7.03;;;;;;;;;;4893159;29;20246;-84
2021/04/16 01:27:19;;;;;;;7.83;7.03;;;;;;;;;;4889960;28;20227;-84
2021/04/16 01:29:47;;;;;;;8.27;7.00;;;;;;;;;;4889912;29;20239;-84
2021/04/16 01:32:22;;;;;;;7.33;6.57;;;;;;;;;;4893675;28;20216;-83
2021/04/16 01:34:50;;;;;;;9.00;7.50;;;;;;;;;;4969621;28;20232;-85
2021/04/16 01:37:18;;;;;;;9.00;7.20;;;;;;;;;;4985568;28;20475;-81
2021/04/16 01:39:46;;;;;;;7.13;6.20;;;;;;;;;;4948248;28;20705;-82
2021/04/16 01:42:15;;;;;;;8.40;6.90;;;;;;;;;;4891169;28;20212;-81
2021/04/16 01:44:43;;;;;;;8.07;7.17;;;;;;;;;;4874474;29;20231;-81
2021/04/16 01:47:12;;;;;;;9.47;7.10;;;;;;;;;;4887579;29;20203;-82
2021/04/16 01:49:42;;;;;;;10.27;7.80;;;;;;;;;;4909644;28;20674;-81
2021/04/16 01:52:13;;;;;;;11.87;8.23;;;;;;;;;;4917304;28;20209;-80
2021/04/16 01:54:42;;;;;;;10.30;8.30;;;;;;;;;;4889343;28;20234;-81
2021/04/16 01:57:13;;;;;;;13.57;8.97;;;;;;;;;;4897133;28;20238;-81
2021/04/16 01:59:44;;;;;;;11.43;8.67;;;;;;;;;;4984043;28;20238;-81
2021/04/16 02:02:15;;;;;;;10.07;8.10;;;;;;;;;;4956968;28;20234;-82
2021/04/16 02:04:43;;;;;;;11.53;8.07;;;;;;;;;;4901446;28;20233;-81
2021/04/16 02:07:10;;;;;;;11.67;8.10;;;;;;;;;;4957233;28;20235;-81
2021/04/16 02:09:40;;;;;;;9.90;8.27;;;;;;;;;;4938010;28;20245;-81
2021/04/16 02:12:10;;;;;;;9.87;7.67;;;;;;;;;;4889614;28;20231;-82
2021/04/16 02:14:37;;;;;;;9.60;7.60;;;;;;;;;;4893106;28;20245;-81
2021/04/16 02:17:08;;;;;;;9.57;7.27;;;;;;;;;;4896693;28;20248;-81
2021/04/16 02:19:36;;;;;;;8.37;7.37;;;;;;;;;;4878552;28;20235;-84
2021/04/16 02:22:04;;;;;;;8.80;7.90;;;;;;;;;;4916283;28;20224;-85
2021/04/16 02:24:32;;;;;;;8.87;7.63;;;;;;;;;;4985007;28;20251;-82
2021/04/16 02:27:00;;;;;;;9.07;7.30;;;;;;;;;;4932167;28;20228;-83
2021/04/16 02:29:27;;;;;;;9.63;7.17;;;;;;;;;;4895267;28;20233;-83
2021/04/16 02:31:55;;;;;;;8.97;7.50;;;;;;;;;;4910203;28;20239;-81
2021/04/16 02:34:26;;;;;;;8.23;7.40;;;;;;;;;;4915636;28;20234;-82
2021/04/16 02:36:57;;;;;;;9.93;7.27;;;;;;;;;;4888722;28;20234;-81
2021/04/16 02:39:25;;;;;;;7.83;6.90;;;;;;;;;;4902875;28;20237;-85
2021/04/16 02:41:52;;;;;;;8.03;7.23;;;;;;;;;;4876978;28;20237;-81
2021/04/16 02:44:21;;;;;;;10.80;7.23;;;;;;;;;;4914476;28;20221;-83
2021/04/16 02:46:49;;;;;;;7.27;6.57;;;;;;;;;;4885826;28;20237;-82
2021/04/16 02:49:17;;;;;;;9.10;7.50;;;;;;;;;;4883919;29;20711;-81
2021/04/16 02:51:46;;;;;;;10.97;7.60;;;;;;;;;;4889552;28;20672;-81
2021/04/16 02:54:14;;;;;;;7.53;6.67;;;;;;;;;;4887279;28;20234;-82
2021/04/16 02:56:42;;;;;;;8.43;7.53;;;;;;;;;;4896429;28;20222;-81
2021/04/16 02:59:10;;;;;;;7.90;7.03;;;;;;;;;;4896664;28;20230;-82
2021/04/16 03:01:38;;;;;;;8.80;7.43;;;;;;;;;;4911132;28;20237;-82
2021/04/16 03:04:05;;;;;;;7.77;6.93;;;;;;;;;;4873085;29;20241;-80
2021/04/16 03:06:33;;;;;;;8.10;7.30;;;;;;;;;;4883712;28;20664;-80
2021/04/16 03:09:04;;;;;;;10.60;7.33;;;;;;;;;;4903208;28;20719;-82
2021/04/16 03:11:32;;;;;;;9.30;8.27;;;;;;;;;;4882938;29;20256;-80
2021/04/16 03:14:00;;;;;;;8.30;7.47;;;;;;;;;;4885346;28;20700;-81
2021/04/16 03:16:28;;;;;;;9.87;8.60;;;;;;;;;;4883467;28;20226;-88
2021/04/16 03:18:58;;;;;;;8.10;7.20;;;;;;;;;;4898859;28;20239;-87
2021/04/16 03:21:26;;;;;;;8.47;7.53;;;;;;;;;;4988336;28;20247;-85
2021/04/16 03:23:53;;;;;;;8.97;7.40;;;;;;;;;;4898925;29;20229;-88
2021/04/16 03:26:22;;;;;;;9.50;8.23;;;;;;;;;;4912763;28;20324;-86
2021/04/16 03:28:52;;;;;;;11.50;8.60;;;;;;;;;;4918200;28;20222;-84
2021/04/16 03:31:20;;;;;;;10.30;8.73;;;;;;;;;;4883537;28;20237;-81
2021/04/16 03:33:48;;;;;;;11.23;9.17;;;;;;;;;;4912552;28;20237;-81
2021/04/16 03:36:16;;;;;;;9.90;8.13;;;;;;;;;;4883150;28;20234;-81
2021/04/16 03:38:44;;;;;;;9.23;8.20;;;;;;;;;;4886805;28;20249;-82
2021/04/16 03:41:12;;;;;;;9.70;7.73;;;;;;;;;;4923772;28;20612;-83
2021/04/16 03:43:42;;;;;;;8.67;7.43;;;;;;;;;;4935033;28;20249;-81
2021/04/16 03:46:10;;;;;;;8.83;7.23;;;;;;;;;;4878725;28;20226;-84
2021/04/16 03:48:37;;;;;;;8.67;7.60;;;;;;;;;;4887222;28;20237;-84
2021/04/16 03:51:07;;;;;;;8.27;7.23;;;;;;;;;;4937651;28;20232;-84
2021/04/16 03:53:35;;;;;;;9.33;7.47;;;;;;;;;;4883442;29;20236;-81
2021/04/16 03:56:07;;;;;;;8.50;7.27;;;;;;;;;;4902189;28;20202;-85
2021/04/16 03:58:35;;;;;;;8.33;7.47;;;;;;;;;;4886763;28;20226;-83
2021/04/16 04:01:05;;;;;;;9.97;7.73;;;;;;;;;;4868451;29;20237;-82
2021/04/16 04:03:33;;;;;;;7.10;6.40;;;;;;;;;;4891340;28;20222;-82
2021/04/16 04:06:02;;;;;;;8.87;7.07;;;;;;;;;;4888508;28;20238;-82
2021/04/16 04:08:29;;;;;;;8.67;7.17;;;;;;;;;;4926296;28;20229;-81
2021/04/16 04:10:57;;;;;;;8.17;7.23;;;;;;;;;;4898481;28;20218;-82
2021/04/16 04:13:25;;;;;;;8.43;7.50;;;;;;;;;;4913594;28;20229;-82
2021/04/16 04:15:52;;;;;;;8.90;7.40;;;;;;;;;;4919454;28;20237;-83
2021/04/16 04:18:30;;;;;;;8.67;7.77;;;;;;;;;;4883746;28;20233;-84
2021/04/16 04:20:59;;;;;;;8.83;7.57;;;;;;;;;;4883302;28;20233;-81
2021/04/16 04:23:28;;;;;;;9.07;7.77;;;;;;;;;;4882266;28;20617;-83
2021/04/16 04:25:58;;;;;;;9.40;7.67;;;;;;;;;;4951469;28;20234;-81
2021/04/16 04:28:26;;;;;;;7.83;7.03;;;;;;;;;;4907957;28;20948;-81
2021/04/16 04:30:53;;;;;;;8.70;7.80;;;;;;;;;;4906935;28;20226;-80
2021/04/16 04:33:21;;;;;;;9.47;6.90;;;;;;;;;;4879914;28;20233;-82
2021/04/16 04:35:50;;;;;;;9.77;7.80;;;;;;;;;;4896642;28;20256;-85
2021/04/16 04:38:18;;;;;;;8.83;7.40;;;;;;;;;;4903955;28;20221;-82
2021/04/16 04:40:46;;;;;;;8.63;7.57;;;;;;;;;;4866711;29;20241;-81
2021/04/16 04:43:13;;;;;;;9.73;7.33;;;;;;;;;;4887813;29;20206;-81
2021/04/16 04:45:41;;;;;;;9.23;7.80;;;;;;;;;;4905433;28;20847;-82
2021/04/16 04:48:09;;;;;;;7.83;7.03;;;;;;;;;;4863151;28;20245;-83
2021/04/16 04:50:37;;;;;;;8.87;7.93;;;;;;;;;;4942560;28;20237;-82
2021/04/16 04:53:06;;;;;;;9.10;8.20;;;;;;;;;;4935009;28;20233;-85
2021/04/16 04:55:34;;;;;;;8.87;7.47;;;;;;;;;;4900140;28;20242;-83
2021/04/16 04:58:02;;;;;;;8.93;7.23;;;;;;;;;;4883652;29;20219;-82
2021/04/16 05:00:30;;;;;;;8.30;7.50;;;;;;;;;;4897260;28;20233;-81
2021/04/16 05:02:58;;;;;;;10.50;8.27;;;;;;;;;;4881977;29;20233;-82
2021/04/16 05:05:26;;;;;;;8.80;7.53;;;;;;;;;;4892190;28;20217;-82
2021/04/16 05:07:54;;;;;;;10.37;7.50;;;;;;;;;;4900090;28;20233;-82
2021/04/16 05:10:22;;;;;;;9.23;7.87;;;;;;;;;;4896385;28;20234;-84
2021/04/16 05:12:51;;;;;;;10.80;7.93;;;;;;;;;;4877035;28;20245;-82
2021/04/16 05:15:21;;;;;;;9.73;7.90;;;;;;;;;;4876732;29;20207;-81
2021/04/16 05:17:48;;;;;;;8.90;8.00;;;;;;;;;;4876423;29;20574;-81
2021/04/16 05:20:17;;;;;;;8.17;7.07;;;;;;;;;;4945658;28;20234;-82
2021/04/16 05:22:44;;;;;;;10.03;8.60;;;;;;;;;;4897381;28;20237;-81
2021/04/16 05:25:12;;;;;;;11.17;8.27;;;;;;;;;;4947644;28;20226;-84
2021/04/16 05:27:41;;;;;;;11.43;8.40;;;;;;;;;;4891030;28;20230;-84
2021/04/16 05:30:10;;;;;;;9.93;7.30;;;;;;;;;;4928438;28;20230;-81
2021/04/16 05:32:38;;;;;;;8.50;7.60;;;;;;;;;;4880269;28;20230;-83
2021/04/16 05:35:07;;;;;;;8.30;7.10;;;;;;;;;;4895954;28;20214;-81
2021/04/16 05:37:34;;;;;;;9.27;7.40;;;;;;;;;;4890620;28;20240;-82
2021/04/16 05:40:02;;;;;;;14.10;8.53;;;;;;;;;;4878848;29;20234;-84
2021/04/16 05:42:30;;;;;;;13.67;8.20;;;;;;;;;;4906054;28;20257;-83
2021/04/16 05:45:00;;;;;;;9.37;7.70;;;;;;;;;;4975690;28;20248;-81
2021/04/16 05:47:28;;;;;;;10.30;7.50;;;;;;;;;;4918929;28;20234;-81
2021/04/16 05:49:56;;;;;;;11.57;7.90;;;;;;;;;;4872350;28;20230;-80
2021/04/16 05:52:24;;;;;;;8.77;7.03;;;;;;;;;;4865487;29;20234;-80
2021/04/16 05:54:51;;;;;;;9.27;7.00;;;;;;;;;;4859729;28;20235;-81
2021/04/16 05:57:19;;;;;;;8.20;7.30;;;;;;;;;;4866374;28;20601;-84
2021/04/16 05:59:46;;;;;;;10.13;6.77;;;;;;;;;;4864034;28;20333;-84
2021/04/16 06:02:26;;;;;;;7.70;6.90;;;;;;;;;;4866860;28;21446;-82
2021/04/16 06:04:55;;;;;;;10.20;7.10;;;;;;;;;;4871735;28;20230;-87
2021/04/16 06:07:23;;;;;;;8.63;7.33;;;;;;;;;;4881768;28;20261;-88
2021/04/16 06:09:51;;;;;;;7.40;6.70;;;;;;;;;;4870568;28;20238;-85
2021/04/16 06:12:19;;;;;;;7.93;6.67;;;;;;;;;;4883965;29;20235;-82
2021/04/16 06:14:47;;;;;;;10.80;7.20;;;;;;;;;;4892602;28;20230;-83
2021/04/16 06:17:16;;;;;;;7.77;6.70;;;;;;;;;;4877139;28;20234;-84
2021/04/16 06:19:45;;;;;;;9.77;6.87;;;;;;;;;;4874876;28;20243;-80
2021/04/16 06:22:13;;;;;;;8.07;7.13;;;;;;;;;;4867770;28;20230;-82
2021/04/16 06:24:41;;;;;;;8.73;7.30;;;;;;;;;;4874679;28;20240;-83
2021/04/16 06:27:09;;;;;;;7.90;7.17;;;;;;;;;;4874110;28;20290;-83
2021/04/16 06:29:36;;;;;;;7.50;6.70;;;;;;;;;;4881663;28;20251;-81
2021/04/16 06:32:04;;;;;;;7.33;6.40;;;;;;;;;;4890571;28;20232;-81
2021/04/16 06:34:32;;;;;;;7.73;6.70;;;;;;;;;;4866811;28;20235;-81
2021/04/16 06:37:01;;;;;;;16.23;7.80;;;;;;;;;;4866703;28;20234;-83
2021/04/16 06:39:28;;;;;;;7.50;6.67;;;;;;;;;;4883407;28;20830;-80
2021/04/16 06:41:56;;;;;;;6.40;5.80;;;;;;;;;;4907391;28;20239;-82
2021/04/16 06:44:25;;;;;;;7.00;6.30;;;;;;;;;;4869344;28;20772;-80
2021/04/16 06:46:56;;;;;;;9.53;7.37;;;;;;;;;;4876791;28;20842;-80
2021/04/16 06:49:26;;;;;;;7.30;6.50;;;;;;;;;;4888616;28;20239;-82
2021/04/16 06:52:01;;;;;;;7.83;6.63;;;;;;;;;;4886334;28;21049;-80
2021/04/16 06:54:38;;;;;;;7.93;6.50;;;;;;;;;;4890064;28;20236;-81
2021/04/16 06:57:15;;;;;;;8.77;6.77;;;;;;;;;;4892852;28;21064;-80
2021/04/16 06:59:44;;;;;;;8.80;7.27;;;;;;;;;;4880500;28;20244;-81
2021/04/16 07:02:15;;;;;;;7.47;6.50;;;;;;;;;;4903623;28;20243;-82
2021/04/16 07:04:46;;;;;;;9.20;7.87;;;;;;;;;;4887570;28;20217;-83
2021/04/16 07:07:21;;;;;;;7.63;6.73;;;;;;;;;;4889598;28;20233;-82
2021/04/16 07:09:54;;;;;;;8.07;7.07;;;;;;;;;;4894758;28;20259;-82
2021/04/16 07:12:22;;;;;;;7.47;6.10;;;;;;;;;;4872910;29;20241;-80
2021/04/16 07:14:54;;;;;;;8.90;6.60;;;;;;;;;;4890596;28;20243;-81
2021/04/16 07:17:23;;;;;;;8.27;6.73;;;;;;;;;;4893369;28;20230;-80
2021/04/16 07:19:52;;;;;;;7.77;6.23;;;;;;;;;;4871541;28;20233;-82
2021/04/16 07:22:23;;;;;;;7.60;5.70;;;;;;;;;;4879935;28;20748;-81
2021/04/16 07:24:52;;;;;;;7.10;5.70;;;;;;;;;;4876359;28;20233;-81
2021/04/16 07:27:23;;;;;;;7.53;5.83;;;;;;;;;;4873945;28;20241;-82
2021/04/16 07:29:54;;;;;;;8.17;5.87;;;;;;;;;;4864041;28;20241;-83
2021/04/16 07:32:39;;;;;;;7.33;5.77;;;;;;;;;;4864803;28;20229;-80
2021/04/16 07:35:20;;;;;;;8.10;5.80;;;;;;;;;;4880762;28;20235;-80
2021/04/16 07:37:57;;;;;;;7.43;6.10;;;;;;;;;;4871424;28;20234;-81
2021/04/16 07:40:36;;;;;;;7.90;6.50;;;;;;;;;;4863778;28;20244;-82
2021/04/16 07:43:05;;;;;;;8.47;6.17;;;;;;;;;;4879795;28;20242;-82
2021/04/16 07:45:40;;;;;;;7.13;6.27;;;;;;;;;;4865102;28;20241;-81
2021/04/16 07:48:32;;;;;;;7.63;5.83;;;;;;;;;;4890883;28;20718;-82
2021/04/16 07:51:04;;;;;;;9.97;6.50;;;;;;;;;;4857749;28;20237;-81
2021/04/16 07:53:38;;;;;;;9.20;6.20;;;;;;;;;;4865072;28;20226;-82
2021/04/16 07:56:10;;;;;;;9.27;6.80;;;;;;;;;;4866021;28;21406;-80
2021/04/16 07:58:39;;;;;;;8.73;6.70;;;;;;;;;;4879094;28;20250;-82
2021/04/16 08:01:15;;;;;;;8.77;7.17;;;;;;;;;;4870420;28;23414;-80
2021/04/16 08:03:50;;;;;;;10.00;7.40;;;;;;;;;;4862214;29;20236;-84
2021/04/16 08:06:31;;;;;;;8.67;6.27;;;;;;;;;;4861701;29;20229;-83
2021/04/16 08:09:00;;;;;;;10.13;6.57;;;;;;;;;;4876683;28;20237;-80
2021/04/16 08:11:30;;;;;;;9.50;7.20;;;;;;;;;;4879713;28;20708;-81
2021/04/16 08:14:01;;;;;;;7.77;6.90;;;;;;;;;;4868906;28;20665;-83
2021/04/16 08:16:32;;;;;;;8.30;6.73;;;;;;;;;;4884761;28;20778;-81
2021/04/16 08:19:24;;;;;;;8.57;7.10;;;;;;;;;;4881290;28;20711;-82
2021/04/16 08:21:59;;;;;;;8.73;7.13;;;;;;;;;;4875357;28;20574;-81
2021/04/16 08:24:34;;;;;;;10.23;8.37;;;;;;;;;;4880353;28;20734;-80
2021/04/16 08:27:11;;;;;;;9.90;7.60;;;;;;;;;;4878896;28;20794;-83
2021/04/16 08:29:41;;;;;;;8.87;7.20;;;;;;;;;;4882342;28;20624;-82
2021/04/16 08:32:24;;;;;;;10.40;8.77;;;;;;;;;;4875178;28;20248;-80
2021/04/16 08:34:57;;;;;;;8.77;7.87;;;;;;;;;;4883167;28;20368;-82
2021/04/16 08:37:33;;;;;;;11.73;7.40;;;;;;;;;;4863303;28;20226;-83
2021/04/16 08:40:04;;;;;;;9.07;7.60;;;;;;;;;;4865199;28;20237;-83
2021/04/16 08:42:34;;;;;;;9.60;8.37;;;;;;;;;;4878995;29;20241;-83
2021/04/16 08:45:08;;;;;;;10.83;8.30;;;;;;;;;;4877957;28;20612;-81
2021/04/16 08:47:45;;;;;;;10.23;8.93;;;;;;;;;;4868785;28;20230;-81
2021/04/16 08:50:14;;;;;;;11.23;9.00;;;;;;;;;;4856675;29;20240;-82
2021/04/16 08:52:45;;;;;;;11.73;9.33;;;;;;;;;;4909655;28;20619;-82
2021/04/16 08:55:21;;;;;;;12.50;8.63;;;;;;;;;;4878297;28;20246;-85
2021/04/16 08:57:53;;;;;;;10.57;8.70;;;;;;;;;;4840148;28;20436;-86
2021/04/16 09:00:28;;;;;;;12.57;8.57;;;;;;;;;;4861995;29;20240;-85
2021/04/16 09:02:58;;;;;;;10.37;9.30;;;;;;;;;;4876496;28;20235;-82
2021/04/16 09:05:27;;;;;;;10.80;9.40;;;;;;;;;;4887407;28;20271;-85
2021/04/16 09:08:21;;;;;;;11.43;9.67;;;;;;;;;;4852004;28;20246;-84
2021/04/16 09:10:51;;;;;;;11.90;8.77;;;;;;;;;;4883981;28;20685;-81
2021/04/16 09:13:49;;;;;;;9.67;8.70;;;;;;;;;;4871156;28;20240;-82
2021/04/16 09:16:49;;;;;;;11.87;8.83;;;;;;;;;;4886851;28;20237;-81
2021/04/16 09:19:37;;;;;;;10.80;9.70;;;;;;;;;;4879557;28;20241;-81
2021/04/16 09:22:41;;;;;;;11.77;9.43;;;;;;;;;;4895853;28;20940;-83
2021/04/16 09:25:49;;;;;;;10.40;9.23;;;;;;;;;;4884021;28;20244;-82
2021/04/16 09:28:50;;;;;;;9.73;8.73;;;;;;;;;;4871018;29;20240;-83
2021/04/16 09:31:53;;;;;;;10.40;8.93;;;;;;;;;;4875352;28;20240;-81
2021/04/16 09:34:24;;;;;;;9.97;8.97;;;;;;;;;;4869766;29;20232;-82
2021/04/16 09:37:13;;;;;;;11.83;8.60;;;;;;;;;;4896757;28;20237;-79
2021/04/16 09:39:42;;;;;;;11.23;8.53;;;;;;;;;;4878910;28;20229;-79
2021/04/16 09:42:33;;;;;;;11.03;9.00;;;;;;;;;;4875497;28;20234;-83
2021/04/16 09:45:02;;;;;;;10.07;8.87;;;;;;;;;;4880600;28;20241;-79
2021/04/16 09:47:42;;;;;;;9.03;7.97;;;;;;;;;;4870856;28;20237;-81
2021/04/16 09:50:24;;;;;;;10.33;7.60;;;;;;;;;;4875920;28;20233;-82
2021/04/16 09:53:17;;;;;;;8.47;7.57;;;;;;;;;;4878704;28;20233;-83
2021/04/16 09:56:13;;;;;;;8.30;7.50;;;;;;;;;;4881844;28;20233;-82
2021/04/16 09:59:23;;;;;;;8.47;7.67;;;;;;;;;;4853851;29;20233;-82
2021/04/16 10:02:29;;;;;;;7.53;6.83;;;;;;;;;;4897870;28;20229;-87
2021/04/16 10:05:05;;;;;;;7.33;6.57;;;;;;;;;;4877645;28;20238;-82
2021/04/16 10:07:38;;;;;;;7.67;7.03;;;;;;;;;;4895091;28;20229;-85
2021/04/16 10:10:12;;;;;;;7.37;6.67;;;;;;;;;;4889704;28;20429;-87
2021/04/16 10:12:40;;;;;;;7.47;6.77;;;;;;;;;;4882878;28;20252;-80
2021/04/16 10:15:23;;;;;;;7.93;7.17;;;;;;;;;;4863516;28;20226;-80
2021/04/16 10:18:12;;;;;;;8.93;7.03;;;;;;;;;;4868111;28;20239;-80
2021/04/16 10:20:54;;;;;;;7.50;6.80;;;;;;;;;;4850626;28;20604;-80
2021/04/16 10:23:25;;;;;;;7.90;7.20;;;;;;;;;;4875681;28;20241;-81
2021/04/16 12:38:20;;;;;;;6.20;5.72;;;;;;;;;;4895360;28;20214;-81
2021/04/16 12:40:47;;;;;;;6.05;5.63;;;;;;;;;;4885882;28;20233;-79
2021/04/16 12:43:15;;;;;;;5.95;5.55;;;;;;;;;;4863690;28;20240;-79
2021/04/16 12:45:44;;;;;;;6.95;6.10;;;;;;;;;;4844630;28;20797;-80
2021/04/16 12:48:11;;;;;;;5.78;5.28;;;;;;;;;;4862435;28;20618;-80
2021/04/16 12:50:39;;;;;;;5.68;5.28;;;;;;;;;;4881923;28;20249;-79
2021/04/16 12:53:06;;;;;;;5.47;5.07;;;;;;;;;;4864695;28;20474;-81
2021/04/16 12:55:35;;;;;;;5.13;4.72;;;;;;;;;;4873095;28;20222;-81
2021/04/16 12:58:06;;;;;;;6.05;5.05;;;;;;;;;;4877651;28;20241;-81
2021/04/16 13:00:35;;;;;;;5.55;5.07;;;;;;;;;;4884515;28;20229;-80
2021/04/16 13:03:05;;;;;;;5.68;5.28;;;;;;;;;;4871102;28;20706;-80
2021/04/16 13:05:33;;;;;;;6.30;5.70;;;;;;;;;;4898153;28;20226;-81
2021/04/16 13:08:01;;;;;;;5.90;5.40;;;;;;;;;;4881870;28;20227;-80
2021/04/16 13:10:29;;;;;;;6.00;5.50;;;;;;;;;;4880597;28;20608;-80
2021/04/16 13:12:57;;;;;;;6.25;5.65;;;;;;;;;;4864202;28;20851;-80
2021/04/16 13:15:25;;;;;;;6.10;5.32;;;;;;;;;;4879592;28;20240;-80
2021/04/16 13:17:54;;;;;;;6.18;5.68;;;;;;;;;;4861911;28;20237;-80
2021/04/16 13:20:25;;;;;;;6.30;5.70;;;;;;;;;;4868395;28;20234;-80
2021/04/16 13:22:52;;;;;;;5.03;4.63;;;;;;;;;;4880727;28;20233;-80
2021/04/16 13:25:23;;;;;;;5.20;4.70;;;;;;;;;;4860538;28;20234;-79
2021/04/16 13:27:51;;;;;;;6.70;5.68;;;;;;;;;;4880730;28;20244;-80
2021/04/16 13:30:22;;;;;;;5.32;4.93;;;;;;;;;;4862818;28;20232;-80
2021/04/16 13:32:53;;;;;;;6.50;5.95;;;;;;;;;;4867704;28;20252;-80
2021/04/16 13:35:27;;;;;;;5.28;4.88;;;;;;;;;;4869724;28;20240;-79
2021/04/16 13:37:55;;;;;;;5.68;5.28;;;;;;;;;;4861220;28;20244;-80
2021/04/16 13:40:23;;;;;;;5.32;4.93;;;;;;;;;;4872249;28;20248;-80
2021/04/16 13:42:50;;;;;;;5.32;4.85;;;;;;;;;;4871693;28;20715;-80
2021/04/16 13:45:18;;;;;;;5.38;4.97;;;;;;;;;;4869031;28;20234;-80
2021/04/16 13:47:47;;;;;;;5.47;4.97;;;;;;;;;;4880392;28;20234;-81
2021/04/16 13:50:17;;;;;;;4.85;4.53;;;;;;;;;;4862766;28;20245;-80
2021/04/16 13:52:50;;;;;;;5.65;5.15;;;;;;;;;;4862628;28;20240;-80
2021/04/16 13:55:19;;;;;;;5.32;4.90;;;;;;;;;;4873498;28;20863;-80
2021/04/16 13:57:46;;;;;;;5.20;4.80;;;;;;;;;;4881124;28;20229;-82
2021/04/16 14:00:20;;;;;;;5.32;4.22;;;;;;;;;;4876507;28;20766;-81
2021/04/16 14:02:49;;;;;;;5.28;4.88;;;;;;;;;;4870989;28;20252;-81
2021/04/16 14:05:19;;;;;;;4.65;4.35;;;;;;;;;;4869232;28;20241;-80
2021/04/16 14:07:47;;;;;;;4.93;4.28;;;;;;;;;;4889231;28;20241;-80
2021/04/16 14:10:16;;;;;;;4.90;4.50;;;;;;;;;;4870002;28;20233;-81
2021/04/16 14:12:43;;;;;;;4.78;4.38;;;;;;;;;;4885934;28;20237;-80
2021/04/16 14:15:12;;;;;;;4.65;4.25;;;;;;;;;;4873817;28;20236;-81
2021/04/16 14:17:42;;;;;;;5.10;4.70;;;;;;;;;;4865838;28;20252;-81
2021/04/16 14:20:19;;;;;;;4.30;4.00;;;;;;;;;;4893073;28;20241;-80
2021/04/16 14:22:49;;;;;;;6.60;4.50;;;;;;;;;;4875141;28;20253;-81
2021/04/16 14:25:19;;;;;;;4.68;4.38;;;;;;;;;;4869804;29;20321;-81
2021/04/16 14:27:46;;;;;;;4.50;4.10;;;;;;;;;;4843683;28;20223;-81
2021/04/16 14:30:17;;;;;;;4.72;4.32;;;;;;;;;;4852730;28;20249;-81
2021/04/16 14:32:48;;;;;;;4.30;3.90;;;;;;;;;;4868230;29;20443;-82
2021/04/16 14:35:17;;;;;;;4.30;4.00;;;;;;;;;;4852091;29;20230;-81
2021/04/16 14:37:45;;;;;;;4.32;4.03;;;;;;;;;;4868498;28;20226;-82
2021/04/16 14:40:14;;;;;;;4.03;3.78;;;;;;;;;;4876495;28;20249;-81
2021/04/16 14:42:41;;;;;;;4.35;4.05;;;;;;;;;;4879809;28;20237;-82
2021/04/16 14:45:12;;;;;;;4.50;4.18;;;;;;;;;;4872763;28;20234;-80
2021/04/16 14:47:40;;;;;;;4.50;4.20;;;;;;;;;;4875564;28;20237;-79
2021/04/16 14:50:12;;;;;;;4.85;4.38;;;;;;;;;;4877060;28;20244;-80
2021/04/16 14:52:41;;;;;;;4.32;3.92;;;;;;;;;;4894164;28;20244;-80
2021/04/16 14:55:10;;;;;;;4.03;3.72;;;;;;;;;;4890922;29;20257;-82
2021/04/16 14:57:39;;;;;;;3.70;3.50;;;;;;;;;;4886807;28;20230;-80
2021/04/16 15:00:09;;;;;;;4.20;3.90;;;;;;;;;;4872890;28;20245;-82
2021/04/16 15:02:37;;;;;;;3.90;3.60;;;;;;;;;;4881892;28;20621;-80
2021/04/16 15:05:06;;;;;;;4.47;4.07;;;;;;;;;;4885235;28;20585;-80
2021/04/16 15:07:40;;;;;;;4.30;4.00;;;;;;;;;;4865264;28;20239;-81
2021/04/16 15:10:10;;;;;;;4.55;4.20;;;;;;;;;;4877585;28;20248;-82
2021/04/16 15:12:42;;;;;;;4.38;4.00;;;;;;;;;;4875325;28;20253;-81
2021/04/16 15:15:19;;;;;;;4.30;4.00;;;;;;;;;;4957646;23;20602;-83
2021/04/16 15:17:46;;;;;;;4.47;4.18;;;;;;;;;;4899747;28;20232;-80
2021/04/16 15:20:15;;;;;;;4.07;3.78;;;;;;;;;;4910385;28;20248;-82
2021/04/16 15:22:42;;;;;;;4.55;4.15;;;;;;;;;;4880889;28;20229;-82
2021/04/16 15:25:12;;;;;;;4.40;4.10;;;;;;;;;;4883799;28;20308;-82
2021/04/16 15:27:46;;;;;;;4.13;3.72;;;;;;;;;;4868523;28;20729;-83
2021/04/16 15:30:21;;;;;;;4.43;4.13;;;;;;;;;;4894020;28;20233;-81
2021/04/16 15:32:51;;;;;;;3.95;3.67;;;;;;;;;;4892998;28;20228;-79
2021/04/16 15:46:38;;;;;;;4.28;3.88;;;;;;;;;;4905873;28;20224;-80
2021/04/16 15:49:07;;;;;;;4.37;4.07;;;;;;;;;;4888769;29;20267;-83
2021/04/16 15:51:35;;;;;;;5.33;4.13;;;;;;;;;;4870054;28;20636;-85
2021/04/16 15:54:04;;;;;;;4.13;3.73;;;;;;;;;;4872224;28;20260;-82
2021/04/16 15:56:34;;;;;;;4.00;3.70;;;;;;;;;;4890625;28;20234;-84
2021/04/16 15:59:06;;;;;;;4.10;3.80;;;;;;;;;;4909176;28;20233;-88
2021/04/16 16:01:34;;;;;;;4.10;3.80;;;;;;;;;;4941042;28;20218;-88
2021/04/16 16:04:02;;;;;;;4.40;4.10;;;;;;;;;;4893189;28;20240;-85
2021/04/16 16:06:31;;;;;;;4.57;4.17;;;;;;;;;;4898946;28;20225;-84
2021/04/16 16:08:58;;;;;;;4.40;4.00;;;;;;;;;;4919011;28;20220;-83
2021/04/16 16:11:33;;;;;;;4.07;3.67;;;;;;;;;;4891784;28;21297;-80
2021/04/16 16:14:03;;;;;;;4.27;3.90;;;;;;;;;;4921595;29;20225;-83
2021/04/16 16:16:31;;;;;;;4.10;3.73;;;;;;;;;;4886465;28;20715;-85
2021/04/16 16:18:59;;;;;;;5.37;4.00;;;;;;;;;;4911967;28;20608;-83
2021/04/16 16:21:28;;;;;;;5.13;3.63;;;;;;;;;;4908400;28;20251;-82
2021/04/16 16:23:56;;;;;;;4.80;3.90;;;;;;;;;;4860462;28;20239;-82
2021/04/16 16:26:28;;;;;;;5.30;4.03;;;;;;;;;;4887891;28;20243;-84
2021/04/16 16:29:00;;;;;;;4.17;3.77;;;;;;;;;;4895423;28;20252;-81
2021/04/16 16:31:29;;;;;;;4.07;3.67;;;;;;;;;;4880309;28;20252;-83
2021/04/16 16:33:56;;;;;;;4.17;3.77;;;;;;;;;;4881025;28;20236;-84
2021/04/16 16:36:25;;;;;;;5.60;3.70;;;;;;;;;;4865123;28;20235;-84
2021/04/16 16:38:52;;;;;;;4.17;3.73;;;;;;;;;;4873163;28;20233;-80
2021/04/16 16:41:21;;;;;;;3.90;3.60;;;;;;;;;;4906501;28;20221;-83
2021/04/16 16:43:51;;;;;;;4.63;3.80;;;;;;;;;;4907373;28;20224;-89
2021/04/16 16:46:26;;;;;;;4.17;3.87;;;;;;;;;;4905325;28;20663;-89
2021/04/16 16:48:54;;;;;;;4.67;4.27;;;;;;;;;;4903375;28;20212;-88
2021/04/16 16:51:25;;;;;;;7.70;4.60;;;;;;;;;;4921677;28;20222;-88
2021/04/16 16:54:05;;;;;;;4.23;3.77;;;;;;;;;;5137514;27;20555;-90
2021/04/16 16:56:34;;;;;;;4.77;4.00;;;;;;;;;;5104149;28;20225;-82
2021/04/16 16:59:04;;;;;;;5.93;4.27;;;;;;;;;;5094482;28;20694;-84
2021/04/16 17:01:32;;;;;;;4.47;3.70;;;;;;;;;;5093748;28;20233;-83
2021/04/16 17:04:12;;;;;;;4.30;3.90;;;;;;;;;;5105277;27;20668;-86
2021/04/16 17:06:40;;;;;;;4.53;4.13;;;;;;;;;;5113904;27;20232;-83
2021/04/16 17:09:07;;;;;;;5.37;4.00;;;;;;;;;;5104057;27;20241;-87
2021/04/16 17:11:38;;;;;;;4.67;4.00;;;;;;;;;;5093056;27;20720;-83
2021/04/16 17:24:40;;;;;;;4.80;4.30;;;;;;;;;;5012412;28;20631;-84
2021/04/16 17:27:10;;;;;;;5.17;4.40;;;;;;;;;;4983558;28;20225;-83
2021/04/16 17:29:42;;;;;;;5.40;4.87;;;;;;;;;;4994492;28;20236;-84
2021/04/16 17:32:11;;;;;;;7.23;5.10;;;;;;;;;;4996740;28;20810;-84
2021/04/16 17:34:39;;;;;;;6.23;4.90;;;;;;;;;;4993179;28;20655;-84
2021/04/16 17:37:06;;;;;;;5.33;4.70;;;;;;;;;;4983693;28;20692;-85